sensor_id;sensor_type;location;lat;lon;timestamp;P1;durP1;ratioP1;P2;durP2;ratioP2
12474;SDS011;6302;42.624;23.334;2023-02-28T00:01:31;11.73;;;8.37;;
12474;SDS011;6302;42.624;23.334;2023-02-28T00:04:00;10.37;;;7.47;;
12474;SDS011;6302;42.624;23.334;2023-02-28T00:06:27;11.17;;;8.20;;
12474;SDS011;6302;42.624;23.334;2023-02-28T00:08:55;11.60;;;7.97;;
12474;SDS011;6302;42.624;23.334;2023-02-28T00:11:22;10.30;;;7.43;;
12474;SDS011;6302;42.624;23.334;2023-02-28T00:13:49;10.00;;;7.80;;
12474;SDS011;6302;42.624;23.334;2023-02-28T00:16:16;9.63;;;7.20;;
12474;SDS011;6302;42.624;23.334;2023-02-28T00:18:45;11.47;;;7.30;;
12474;SDS011;6302;42.624;23.334;2023-02-28T00:21:13;9.80;;;7.40;;
12474;SDS011;6302;42.624;23.334;2023-02-28T00:23:40;10.47;;;8.10;;
12474;SDS011;6302;42.624;23.334;2023-02-28T00:26:09;10.37;;;7.47;;
12474;SDS011;6302;42.624;23.334;2023-02-28T00:28:36;11.50;;;7.50;;
12474;SDS011;6302;42.624;23.334;2023-02-28T00:31:03;9.27;;;7.43;;
12474;SDS011;6302;42.624;23.334;2023-02-28T00:33:30;12.97;;;7.87;;
12474;SDS011;6302;42.624;23.334;2023-02-28T00:36:01;11.97;;;8.70;;
12474;SDS011;6302;42.624;23.334;2023-02-28T00:38:29;12.10;;;9.27;;
12474;SDS011;6302;42.624;23.334;2023-02-28T00:40:56;13.23;;;8.80;;
12474;SDS011;6302;42.624;23.334;2023-02-28T00:43:25;12.90;;;8.73;;
12474;SDS011;6302;42.624;23.334;2023-02-28T00:45:52;12.23;;;9.10;;
12474;SDS011;6302;42.624;23.334;2023-02-28T00:48:18;14.20;;;9.37;;
12474;SDS011;6302;42.624;23.334;2023-02-28T00:50:48;14.03;;;10.90;;
12474;SDS011;6302;42.624;23.334;2023-02-28T00:53:15;14.47;;;9.97;;
12474;SDS011;6302;42.624;23.334;2023-02-28T00:55:42;13.23;;;9.63;;
12474;SDS011;6302;42.624;23.334;2023-02-28T00:58:09;12.53;;;8.80;;
12474;SDS011;6302;42.624;23.334;2023-02-28T01:00:37;12.63;;;8.80;;
12474;SDS011;6302;42.624;23.334;2023-02-28T01:03:04;11.53;;;8.87;;
12474;SDS011;6302;42.624;23.334;2023-02-28T01:05:31;12.87;;;9.83;;
12474;SDS011;6302;42.624;23.334;2023-02-28T01:07:57;13.10;;;9.63;;
12474;SDS011;6302;42.624;23.334;2023-02-28T01:10:24;16.07;;;9.90;;
12474;SDS011;6302;42.624;23.334;2023-02-28T01:12:51;12.80;;;9.70;;
12474;SDS011;6302;42.624;23.334;2023-02-28T01:15:18;14.07;;;9.80;;
12474;SDS011;6302;42.624;23.334;2023-02-28T01:17:46;11.10;;;9.20;;
12474;SDS011;6302;42.624;23.334;2023-02-28T01:20:13;13.87;;;9.00;;
12474;SDS011;6302;42.624;23.334;2023-02-28T01:22:40;11.83;;;9.50;;
12474;SDS011;6302;42.624;23.334;2023-02-28T01:25:07;14.50;;;9.33;;
12474;SDS011;6302;42.624;23.334;2023-02-28T01:27:34;12.23;;;9.27;;
12474;SDS011;6302;42.624;23.334;2023-02-28T01:30:02;16.23;;;11.30;;
12474;SDS011;6302;42.624;23.334;2023-02-28T01:32:28;17.70;;;11.10;;
12474;SDS011;6302;42.624;23.334;2023-02-28T01:34:57;15.60;;;10.87;;
12474;SDS011;6302;42.624;23.334;2023-02-28T01:37:23;14.30;;;10.53;;
12474;SDS011;6302;42.624;23.334;2023-02-28T01:39:50;14.60;;;10.33;;
12474;SDS011;6302;42.624;23.334;2023-02-28T01:42:17;16.03;;;10.93;;
12474;SDS011;6302;42.624;23.334;2023-02-28T01:45:00;21.03;;;13.20;;
12474;SDS011;6302;42.624;23.334;2023-02-28T01:47:31;18.83;;;12.20;;
12474;SDS011;6302;42.624;23.334;2023-02-28T01:50:04;20.63;;;13.43;;
12474;SDS011;6302;42.624;23.334;2023-02-28T01:52:34;22.03;;;13.33;;
12474;SDS011;6302;42.624;23.334;2023-02-28T01:55:01;26.80;;;13.07;;
12474;SDS011;6302;42.624;23.334;2023-02-28T01:57:32;22.67;;;13.57;;
12474;SDS011;6302;42.624;23.334;2023-02-28T02:00:05;24.63;;;14.03;;
12474;SDS011;6302;42.624;23.334;2023-02-28T02:02:35;52.00;;;14.27;;
12474;SDS011;6302;42.624;23.334;2023-02-28T02:05:06;66.17;;;14.37;;
12474;SDS011;6302;42.624;23.334;2023-02-28T02:07:35;19.57;;;12.40;;
12474;SDS011;6302;42.624;23.334;2023-02-28T02:10:04;34.13;;;12.97;;
12474;SDS011;6302;42.624;23.334;2023-02-28T02:12:50;43.60;;;13.10;;
12474;SDS011;6302;42.624;23.334;2023-02-28T02:15:32;20.73;;;12.47;;
12474;SDS011;6302;42.624;23.334;2023-02-28T02:18:04;44.73;;;14.93;;
12474;SDS011;6302;42.624;23.334;2023-02-28T02:20:48;25.40;;;14.10;;
12474;SDS011;6302;42.624;23.334;2023-02-28T02:26:53;24.10;;;13.73;;
12474;SDS011;6302;42.624;23.334;2023-02-28T02:29:35;22.60;;;12.30;;
12474;SDS011;6302;42.624;23.334;2023-02-28T02:32:34;25.93;;;14.77;;
12474;SDS011;6302;42.624;23.334;2023-02-28T02:35:17;23.27;;;14.90;;
12474;SDS011;6302;42.624;23.334;2023-02-28T02:37:52;20.33;;;13.33;;
12474;SDS011;6302;42.624;23.334;2023-02-28T02:40:27;20.13;;;12.60;;
12474;SDS011;6302;42.624;23.334;2023-02-28T02:42:59;19.70;;;13.30;;
12474;SDS011;6302;42.624;23.334;2023-02-28T02:45:31;21.00;;;12.63;;
12474;SDS011;6302;42.624;23.334;2023-02-28T02:48:01;22.00;;;12.73;;
12474;SDS011;6302;42.624;23.334;2023-02-28T02:50:31;36.23;;;14.17;;
12474;SDS011;6302;42.624;23.334;2023-02-28T02:53:01;21.73;;;11.97;;
12474;SDS011;6302;42.624;23.334;2023-02-28T02:55:30;25.20;;;12.53;;
12474;SDS011;6302;42.624;23.334;2023-02-28T02:58:01;22.93;;;13.73;;
12474;SDS011;6302;42.624;23.334;2023-02-28T03:00:32;31.47;;;13.00;;
12474;SDS011;6302;42.624;23.334;2023-02-28T03:03:02;37.13;;;12.57;;
12474;SDS011;6302;42.624;23.334;2023-02-28T03:05:32;22.83;;;13.47;;
12474;SDS011;6302;42.624;23.334;2023-02-28T03:08:03;35.37;;;14.73;;
12474;SDS011;6302;42.624;23.334;2023-02-28T03:10:32;45.07;;;14.67;;
12474;SDS011;6302;42.624;23.334;2023-02-28T03:13:09;36.53;;;14.53;;
12474;SDS011;6302;42.624;23.334;2023-02-28T03:15:44;35.50;;;14.17;;
12474;SDS011;6302;42.624;23.334;2023-02-28T03:18:24;47.03;;;13.03;;
12474;SDS011;6302;42.624;23.334;2023-02-28T03:20:58;23.60;;;13.30;;
12474;SDS011;6302;42.624;23.334;2023-02-28T03:23:34;23.77;;;13.13;;
12474;SDS011;6302;42.624;23.334;2023-02-28T03:26:11;30.30;;;14.90;;
12474;SDS011;6302;42.624;23.334;2023-02-28T03:28:46;39.73;;;13.30;;
12474;SDS011;6302;42.624;23.334;2023-02-28T03:31:19;29.03;;;14.40;;
12474;SDS011;6302;42.624;23.334;2023-02-28T03:33:54;23.03;;;13.30;;
12474;SDS011;6302;42.624;23.334;2023-02-28T03:36:26;19.83;;;12.10;;
12474;SDS011;6302;42.624;23.334;2023-02-28T03:38:56;17.93;;;11.47;;
12474;SDS011;6302;42.624;23.334;2023-02-28T03:41:29;19.77;;;11.27;;
12474;SDS011;6302;42.624;23.334;2023-02-28T03:43:59;15.27;;;10.73;;
12474;SDS011;6302;42.624;23.334;2023-02-28T03:46:33;17.13;;;10.23;;
12474;SDS011;6302;42.624;23.334;2023-02-28T03:49:03;17.63;;;11.43;;
12474;SDS011;6302;42.624;23.334;2023-02-28T03:51:37;17.67;;;11.17;;
12474;SDS011;6302;42.624;23.334;2023-02-28T03:54:07;17.00;;;10.77;;
12474;SDS011;6302;42.624;23.334;2023-02-28T03:56:38;20.43;;;10.30;;
12474;SDS011;6302;42.624;23.334;2023-02-28T03:59:10;14.17;;;9.93;;
12474;SDS011;6302;42.624;23.334;2023-02-28T04:01:42;16.70;;;10.50;;
12474;SDS011;6302;42.624;23.334;2023-02-28T04:04:10;19.03;;;10.43;;
12474;SDS011;6302;42.624;23.334;2023-02-28T04:06:40;17.13;;;11.13;;
12474;SDS011;6302;42.624;23.334;2023-02-28T04:09:08;24.67;;;11.50;;
12474;SDS011;6302;42.624;23.334;2023-02-28T04:11:37;32.67;;;12.03;;
12474;SDS011;6302;42.624;23.334;2023-02-28T04:14:06;93.67;;;13.17;;
12474;SDS011;6302;42.624;23.334;2023-02-28T04:16:35;55.83;;;14.60;;
12474;SDS011;6302;42.624;23.334;2023-02-28T04:19:04;158.93;;;17.33;;
12474;SDS011;6302;42.624;23.334;2023-02-28T04:21:32;30.73;;;16.13;;
12474;SDS011;6302;42.624;23.334;2023-02-28T04:24:03;61.47;;;15.77;;
12474;SDS011;6302;42.624;23.334;2023-02-28T04:26:30;57.40;;;15.63;;
12474;SDS011;6302;42.624;23.334;2023-02-28T04:28:57;64.07;;;14.27;;
12474;SDS011;6302;42.624;23.334;2023-02-28T04:31:24;46.27;;;12.77;;
12474;SDS011;6302;42.624;23.334;2023-02-28T04:33:51;44.43;;;12.63;;
12474;SDS011;6302;42.624;23.334;2023-02-28T04:36:18;82.67;;;15.27;;
12474;SDS011;6302;42.624;23.334;2023-02-28T04:38:45;24.03;;;13.17;;
12474;SDS011;6302;42.624;23.334;2023-02-28T04:41:14;20.27;;;12.33;;
12474;SDS011;6302;42.624;23.334;2023-02-28T04:43:41;32.83;;;12.47;;
12474;SDS011;6302;42.624;23.334;2023-02-28T04:46:08;24.40;;;11.67;;
12474;SDS011;6302;42.624;23.334;2023-02-28T04:48:36;17.73;;;11.47;;
12474;SDS011;6302;42.624;23.334;2023-02-28T04:51:05;33.23;;;11.70;;
12474;SDS011;6302;42.624;23.334;2023-02-28T04:53:33;20.77;;;11.63;;
12474;SDS011;6302;42.624;23.334;2023-02-28T04:56:00;18.90;;;12.40;;
12474;SDS011;6302;42.624;23.334;2023-02-28T04:58:28;23.60;;;12.47;;
12474;SDS011;6302;42.624;23.334;2023-02-28T05:01:00;27.17;;;12.80;;
12474;SDS011;6302;42.624;23.334;2023-02-28T05:03:29;18.03;;;12.33;;
12474;SDS011;6302;42.624;23.334;2023-02-28T05:05:55;18.50;;;11.50;;
12474;SDS011;6302;42.624;23.334;2023-02-28T05:08:22;22.90;;;12.30;;
12474;SDS011;6302;42.624;23.334;2023-02-28T05:10:50;21.10;;;11.90;;
12474;SDS011;6302;42.624;23.334;2023-02-28T05:13:17;52.30;;;11.93;;
12474;SDS011;6302;42.624;23.334;2023-02-28T05:15:45;18.43;;;10.73;;
12474;SDS011;6302;42.624;23.334;2023-02-28T05:18:11;19.40;;;11.53;;
12474;SDS011;6302;42.624;23.334;2023-02-28T05:20:38;19.20;;;11.90;;
12474;SDS011;6302;42.624;23.334;2023-02-28T05:23:08;18.90;;;11.57;;
12474;SDS011;6302;42.624;23.334;2023-02-28T05:25:37;17.23;;;10.57;;
12474;SDS011;6302;42.624;23.334;2023-02-28T05:28:04;15.40;;;10.83;;
12474;SDS011;6302;42.624;23.334;2023-02-28T05:30:31;20.30;;;11.93;;
12474;SDS011;6302;42.624;23.334;2023-02-28T05:32:59;18.30;;;11.10;;
12474;SDS011;6302;42.624;23.334;2023-02-28T05:35:28;29.50;;;12.40;;
12474;SDS011;6302;42.624;23.334;2023-02-28T05:37:55;62.63;;;13.50;;
12474;SDS011;6302;42.624;23.334;2023-02-28T05:40:22;49.90;;;13.53;;
12474;SDS011;6302;42.624;23.334;2023-02-28T05:42:52;20.43;;;12.20;;
12474;SDS011;6302;42.624;23.334;2023-02-28T05:45:22;18.80;;;12.20;;
12474;SDS011;6302;42.624;23.334;2023-02-28T05:47:49;22.30;;;12.77;;
12474;SDS011;6302;42.624;23.334;2023-02-28T05:50:21;16.90;;;11.47;;
12474;SDS011;6302;42.624;23.334;2023-02-28T05:52:48;20.80;;;9.90;;
12474;SDS011;6302;42.624;23.334;2023-02-28T05:55:16;16.87;;;11.83;;
12474;SDS011;6302;42.624;23.334;2023-02-28T05:57:43;16.10;;;10.83;;
12474;SDS011;6302;42.624;23.334;2023-02-28T06:00:10;18.17;;;11.90;;
12474;SDS011;6302;42.624;23.334;2023-02-28T06:02:40;19.33;;;11.37;;
12474;SDS011;6302;42.624;23.334;2023-02-28T06:05:07;17.20;;;11.27;;
12474;SDS011;6302;42.624;23.334;2023-02-28T06:07:41;25.40;;;12.00;;
12474;SDS011;6302;42.624;23.334;2023-02-28T06:10:09;35.77;;;14.43;;
12474;SDS011;6302;42.624;23.334;2023-02-28T06:12:36;104.93;;;18.70;;
12474;SDS011;6302;42.624;23.334;2023-02-28T06:15:03;98.93;;;17.93;;
12474;SDS011;6302;42.624;23.334;2023-02-28T06:17:31;23.80;;;14.70;;
12474;SDS011;6302;42.624;23.334;2023-02-28T06:19:58;25.00;;;16.23;;
12474;SDS011;6302;42.624;23.334;2023-02-28T06:22:24;39.13;;;17.17;;
12474;SDS011;6302;42.624;23.334;2023-02-28T06:24:52;26.80;;;16.40;;
12474;SDS011;6302;42.624;23.334;2023-02-28T06:27:20;27.70;;;15.10;;
12474;SDS011;6302;42.624;23.334;2023-02-28T06:29:47;24.87;;;15.97;;
12474;SDS011;6302;42.624;23.334;2023-02-28T06:32:13;24.17;;;14.50;;
12474;SDS011;6302;42.624;23.334;2023-02-28T06:34:40;26.67;;;14.63;;
12474;SDS011;6302;42.624;23.334;2023-02-28T06:37:07;29.23;;;15.90;;
12474;SDS011;6302;42.624;23.334;2023-02-28T06:39:34;23.97;;;14.43;;
12474;SDS011;6302;42.624;23.334;2023-02-28T06:42:03;21.03;;;13.73;;
12474;SDS011;6302;42.624;23.334;2023-02-28T06:44:30;22.17;;;14.13;;
12474;SDS011;6302;42.624;23.334;2023-02-28T06:47:00;21.10;;;12.90;;
12474;SDS011;6302;42.624;23.334;2023-02-28T06:49:28;23.57;;;15.63;;
12474;SDS011;6302;42.624;23.334;2023-02-28T06:51:55;22.77;;;14.13;;
12474;SDS011;6302;42.624;23.334;2023-02-28T06:54:22;21.37;;;14.27;;
12474;SDS011;6302;42.624;23.334;2023-02-28T06:56:49;27.30;;;16.80;;
12474;SDS011;6302;42.624;23.334;2023-02-28T06:59:17;22.37;;;15.80;;
12474;SDS011;6302;42.624;23.334;2023-02-28T07:01:44;24.63;;;15.90;;
12474;SDS011;6302;42.624;23.334;2023-02-28T07:04:11;24.47;;;16.40;;
12474;SDS011;6302;42.624;23.334;2023-02-28T07:06:38;27.73;;;16.87;;
12474;SDS011;6302;42.624;23.334;2023-02-28T07:09:05;25.20;;;16.33;;
12474;SDS011;6302;42.624;23.334;2023-02-28T07:11:32;26.97;;;16.10;;
12474;SDS011;6302;42.624;23.334;2023-02-28T07:13:59;28.90;;;17.33;;
12474;SDS011;6302;42.624;23.334;2023-02-28T07:16:27;25.07;;;17.37;;
12474;SDS011;6302;42.624;23.334;2023-02-28T07:18:54;26.60;;;16.67;;
12474;SDS011;6302;42.624;23.334;2023-02-28T07:21:21;27.87;;;16.63;;
12474;SDS011;6302;42.624;23.334;2023-02-28T07:23:48;28.00;;;17.63;;
12474;SDS011;6302;42.624;23.334;2023-02-28T07:26:15;24.37;;;16.20;;
12474;SDS011;6302;42.624;23.334;2023-02-28T07:28:44;27.70;;;16.17;;
12474;SDS011;6302;42.624;23.334;2023-02-28T07:31:11;26.37;;;16.67;;
12474;SDS011;6302;42.624;23.334;2023-02-28T07:33:41;24.23;;;16.80;;
12474;SDS011;6302;42.624;23.334;2023-02-28T07:36:09;28.80;;;17.67;;
12474;SDS011;6302;42.624;23.334;2023-02-28T07:38:41;25.57;;;16.60;;
12474;SDS011;6302;42.624;23.334;2023-02-28T07:41:08;24.63;;;15.93;;
12474;SDS011;6302;42.624;23.334;2023-02-28T07:43:35;24.50;;;15.43;;
12474;SDS011;6302;42.624;23.334;2023-02-28T07:46:03;25.63;;;16.37;;
12474;SDS011;6302;42.624;23.334;2023-02-28T07:48:31;30.30;;;15.93;;
12474;SDS011;6302;42.624;23.334;2023-02-28T07:50:59;29.73;;;18.17;;
12474;SDS011;6302;42.624;23.334;2023-02-28T07:53:26;27.80;;;16.80;;
12474;SDS011;6302;42.624;23.334;2023-02-28T07:55:54;30.03;;;18.80;;
12474;SDS011;6302;42.624;23.334;2023-02-28T07:58:21;27.47;;;17.60;;
12474;SDS011;6302;42.624;23.334;2023-02-28T08:00:49;31.40;;;20.70;;
12474;SDS011;6302;42.624;23.334;2023-02-28T08:03:16;27.00;;;18.37;;
12474;SDS011;6302;42.624;23.334;2023-02-28T08:05:44;31.37;;;17.40;;
12474;SDS011;6302;42.624;23.334;2023-02-28T08:08:14;29.97;;;18.93;;
12474;SDS011;6302;42.624;23.334;2023-02-28T08:10:42;26.37;;;16.00;;
12474;SDS011;6302;42.624;23.334;2023-02-28T08:13:09;28.67;;;16.57;;
12474;SDS011;6302;42.624;23.334;2023-02-28T08:15:36;31.30;;;18.53;;
12474;SDS011;6302;42.624;23.334;2023-02-28T08:18:03;35.47;;;18.87;;
12474;SDS011;6302;42.624;23.334;2023-02-28T08:20:29;29.40;;;19.20;;
12474;SDS011;6302;42.624;23.334;2023-02-28T08:22:56;24.87;;;16.20;;
12474;SDS011;6302;42.624;23.334;2023-02-28T08:25:25;35.20;;;16.70;;
12474;SDS011;6302;42.624;23.334;2023-02-28T08:27:52;27.90;;;17.13;;
12474;SDS011;6302;42.624;23.334;2023-02-28T08:30:19;36.17;;;18.27;;
12474;SDS011;6302;42.624;23.334;2023-02-28T08:32:46;28.20;;;17.20;;
12474;SDS011;6302;42.624;23.334;2023-02-28T08:35:12;25.17;;;15.97;;
12474;SDS011;6302;42.624;23.334;2023-02-28T08:37:39;33.27;;;16.73;;
12474;SDS011;6302;42.624;23.334;2023-02-28T08:40:07;27.30;;;15.20;;
12474;SDS011;6302;42.624;23.334;2023-02-28T08:42:35;26.90;;;15.90;;
12474;SDS011;6302;42.624;23.334;2023-02-28T08:45:02;21.83;;;13.47;;
12474;SDS011;6302;42.624;23.334;2023-02-28T08:47:30;22.47;;;12.10;;
12474;SDS011;6302;42.624;23.334;2023-02-28T08:49:56;17.33;;;10.23;;
12474;SDS011;6302;42.624;23.334;2023-02-28T08:52:23;15.10;;;9.43;;
12474;SDS011;6302;42.624;23.334;2023-02-28T08:54:50;14.17;;;9.30;;
12474;SDS011;6302;42.624;23.334;2023-02-28T08:57:17;15.57;;;10.60;;
12474;SDS011;6302;42.624;23.334;2023-02-28T08:59:45;12.97;;;8.97;;
12474;SDS011;6302;42.624;23.334;2023-02-28T09:02:12;16.43;;;9.87;;
12474;SDS011;6302;42.624;23.334;2023-02-28T09:04:39;29.93;;;16.00;;
12474;SDS011;6302;42.624;23.334;2023-02-28T09:07:06;28.90;;;18.13;;
12474;SDS011;6302;42.624;23.334;2023-02-28T09:09:33;41.77;;;23.73;;
12474;SDS011;6302;42.624;23.334;2023-02-28T09:12:00;37.00;;;22.27;;
12474;SDS011;6302;42.624;23.334;2023-02-28T09:14:27;37.07;;;22.57;;
12474;SDS011;6302;42.624;23.334;2023-02-28T09:16:56;39.90;;;22.27;;
12474;SDS011;6302;42.624;23.334;2023-02-28T09:19:25;38.63;;;22.37;;
12474;SDS011;6302;42.624;23.334;2023-02-28T09:21:52;23.70;;;15.53;;
12474;SDS011;6302;42.624;23.334;2023-02-28T09:24:19;14.70;;;9.40;;
12474;SDS011;6302;42.624;23.334;2023-02-28T09:26:46;15.03;;;9.43;;
12474;SDS011;6302;42.624;23.334;2023-02-28T09:29:12;14.77;;;8.70;;
12474;SDS011;6302;42.624;23.334;2023-02-28T09:31:41;16.33;;;9.90;;
12474;SDS011;6302;42.624;23.334;2023-02-28T09:34:10;18.57;;;8.97;;
12474;SDS011;6302;42.624;23.334;2023-02-28T09:36:37;16.37;;;8.13;;
12474;SDS011;6302;42.624;23.334;2023-02-28T09:39:03;12.90;;;8.63;;
12474;SDS011;6302;42.624;23.334;2023-02-28T09:41:32;19.13;;;8.23;;
12474;SDS011;6302;42.624;23.334;2023-02-28T09:44:12;15.10;;;8.17;;
12474;SDS011;6302;42.624;23.334;2023-02-28T09:46:46;18.53;;;8.03;;
12474;SDS011;6302;42.624;23.334;2023-02-28T09:49:19;14.83;;;8.73;;
12474;SDS011;6302;42.624;23.334;2023-02-28T09:51:50;14.10;;;8.70;;
12474;SDS011;6302;42.624;23.334;2023-02-28T09:54:22;17.80;;;8.97;;
12474;SDS011;6302;42.624;23.334;2023-02-28T09:56:50;12.07;;;7.83;;
12474;SDS011;6302;42.624;23.334;2023-02-28T10:02:24;20.13;;;8.63;;
12474;SDS011;6302;42.624;23.334;2023-02-28T10:05:18;16.03;;;7.70;;
12474;SDS011;6302;42.624;23.334;2023-02-28T10:07:51;13.47;;;7.30;;
12474;SDS011;6302;42.624;23.334;2023-02-28T10:10:28;15.20;;;7.83;;
12474;SDS011;6302;42.624;23.334;2023-02-28T10:13:02;14.47;;;7.03;;
12474;SDS011;6302;42.624;23.334;2023-02-28T10:15:32;11.97;;;7.33;;
12474;SDS011;6302;42.624;23.334;2023-02-28T10:18:02;15.67;;;7.87;;
12474;SDS011;6302;42.624;23.334;2023-02-28T10:20:37;11.97;;;7.43;;
12474;SDS011;6302;42.624;23.334;2023-02-28T10:26:28;18.47;;;7.43;;
12474;SDS011;6302;42.624;23.334;2023-02-28T10:28:56;15.43;;;7.80;;
12474;SDS011;6302;42.624;23.334;2023-02-28T10:31:23;13.30;;;7.90;;
12474;SDS011;6302;42.624;23.334;2023-02-28T10:33:49;17.77;;;9.07;;
12474;SDS011;6302;42.624;23.334;2023-02-28T10:36:18;16.83;;;9.43;;
12474;SDS011;6302;42.624;23.334;2023-02-28T10:38:47;14.67;;;9.63;;
12474;SDS011;6302;42.624;23.334;2023-02-28T10:41:15;16.33;;;7.50;;
12474;SDS011;6302;42.624;23.334;2023-02-28T10:43:52;13.53;;;6.70;;
12474;SDS011;6302;42.624;23.334;2023-02-28T10:46:39;16.27;;;7.70;;
12474;SDS011;6302;42.624;23.334;2023-02-28T10:49:12;13.47;;;7.23;;
12474;SDS011;6302;42.624;23.334;2023-02-28T10:51:43;14.53;;;7.53;;
12474;SDS011;6302;42.624;23.334;2023-02-28T10:54:14;17.77;;;7.87;;
12474;SDS011;6302;42.624;23.334;2023-02-28T10:56:45;11.33;;;7.83;;
12474;SDS011;6302;42.624;23.334;2023-02-28T10:59:32;11.80;;;7.43;;
12474;SDS011;6302;42.624;23.334;2023-02-28T11:01:58;12.70;;;6.77;;
12474;SDS011;6302;42.624;23.334;2023-02-28T11:04:32;14.63;;;7.23;;
12474;SDS011;6302;42.624;23.334;2023-02-28T11:07:05;12.10;;;7.10;;
12474;SDS011;6302;42.624;23.334;2023-02-28T11:09:44;12.13;;;7.10;;
12474;SDS011;6302;42.624;23.334;2023-02-28T11:12:19;13.27;;;7.17;;
12474;SDS011;6302;42.624;23.334;2023-02-28T11:14:49;10.70;;;7.10;;
12474;SDS011;6302;42.624;23.334;2023-02-28T11:17:20;13.33;;;7.30;;
12474;SDS011;6302;42.624;23.334;2023-02-28T11:19:49;13.20;;;8.27;;
12474;SDS011;6302;42.624;23.334;2023-02-28T11:22:20;14.80;;;8.07;;
12474;SDS011;6302;42.624;23.334;2023-02-28T11:24:50;13.40;;;7.57;;
12474;SDS011;6302;42.624;23.334;2023-02-28T11:27:26;14.67;;;8.00;;
12474;SDS011;6302;42.624;23.334;2023-02-28T11:32:54;17.73;;;8.13;;
12474;SDS011;6302;42.624;23.334;2023-02-28T11:35:22;12.27;;;8.07;;
12474;SDS011;6302;42.624;23.334;2023-02-28T11:37:53;14.80;;;8.27;;
12474;SDS011;6302;42.624;23.334;2023-02-28T11:40:22;14.60;;;8.90;;
12474;SDS011;6302;42.624;23.334;2023-02-28T11:42:57;16.97;;;9.07;;
12474;SDS011;6302;42.624;23.334;2023-02-28T11:45:37;14.97;;;9.60;;
12474;SDS011;6302;42.624;23.334;2023-02-28T11:48:13;15.03;;;8.80;;
12474;SDS011;6302;42.624;23.334;2023-02-28T11:50:49;13.67;;;9.23;;
12474;SDS011;6302;42.624;23.334;2023-02-28T11:53:43;14.13;;;8.03;;
12474;SDS011;6302;42.624;23.334;2023-02-28T11:56:24;13.23;;;8.73;;
12474;SDS011;6302;42.624;23.334;2023-02-28T11:59:01;15.13;;;8.50;;
12474;SDS011;6302;42.624;23.334;2023-02-28T12:01:45;14.60;;;8.73;;
12474;SDS011;6302;42.624;23.334;2023-02-28T12:04:25;13.80;;;7.97;;
12474;SDS011;6302;42.624;23.334;2023-02-28T12:07:00;12.30;;;8.37;;
12474;SDS011;6302;42.624;23.334;2023-02-28T12:09:46;17.20;;;8.93;;
12474;SDS011;6302;42.624;23.334;2023-02-28T12:12:29;14.13;;;9.00;;
12474;SDS011;6302;42.624;23.334;2023-02-28T12:15:16;17.80;;;9.67;;
12474;SDS011;6302;42.624;23.334;2023-02-28T12:18:01;14.93;;;8.70;;
12474;SDS011;6302;42.624;23.334;2023-02-28T12:20:37;15.30;;;9.87;;
12474;SDS011;6302;42.624;23.334;2023-02-28T12:23:21;18.67;;;11.20;;
12474;SDS011;6302;42.624;23.334;2023-02-28T12:26:09;17.37;;;10.30;;
12474;SDS011;6302;42.624;23.334;2023-02-28T12:28:43;17.00;;;10.13;;
12474;SDS011;6302;42.624;23.334;2023-02-28T12:31:15;17.67;;;10.43;;
12474;SDS011;6302;42.624;23.334;2023-02-28T12:33:45;14.70;;;10.23;;
12474;SDS011;6302;42.624;23.334;2023-02-28T12:36:17;17.77;;;10.10;;
12474;SDS011;6302;42.624;23.334;2023-02-28T12:38:47;18.53;;;10.10;;
12474;SDS011;6302;42.624;23.334;2023-02-28T12:41:19;16.97;;;10.80;;
12474;SDS011;6302;42.624;23.334;2023-02-28T12:43:53;16.23;;;9.93;;
12474;SDS011;6302;42.624;23.334;2023-02-28T12:46:24;20.13;;;10.73;;
12474;SDS011;6302;42.624;23.334;2023-02-28T12:48:56;19.43;;;11.60;;
12474;SDS011;6302;42.624;23.334;2023-02-28T12:51:26;16.20;;;9.20;;
12474;SDS011;6302;42.624;23.334;2023-02-28T12:53:57;15.70;;;9.63;;
12474;SDS011;6302;42.624;23.334;2023-02-28T12:56:35;15.13;;;9.43;;
12474;SDS011;6302;42.624;23.334;2023-02-28T12:59:12;16.17;;;9.23;;
12474;SDS011;6302;42.624;23.334;2023-02-28T13:02:02;18.10;;;9.57;;
12474;SDS011;6302;42.624;23.334;2023-02-28T13:04:46;15.80;;;10.43;;
12474;SDS011;6302;42.624;23.334;2023-02-28T13:07:37;16.33;;;11.13;;
12474;SDS011;6302;42.624;23.334;2023-02-28T13:10:15;17.27;;;9.63;;
12474;SDS011;6302;42.624;23.334;2023-02-28T13:12:48;14.53;;;9.43;;
12474;SDS011;6302;42.624;23.334;2023-02-28T13:15:23;19.07;;;10.97;;
12474;SDS011;6302;42.624;23.334;2023-02-28T13:17:54;15.60;;;9.77;;
12474;SDS011;6302;42.624;23.334;2023-02-28T13:20:23;15.13;;;10.10;;
12474;SDS011;6302;42.624;23.334;2023-02-28T13:22:52;19.07;;;9.77;;
12474;SDS011;6302;42.624;23.334;2023-02-28T13:31:34;15.00;;;9.03;;
12474;SDS011;6302;42.624;23.334;2023-02-28T13:34:39;18.60;;;9.30;;
12474;SDS011;6302;42.624;23.334;2023-02-28T13:40:00;19.47;;;9.90;;
12474;SDS011;6302;42.624;23.334;2023-02-28T13:42:53;13.67;;;8.50;;
12474;SDS011;6302;42.624;23.334;2023-02-28T13:45:21;13.27;;;8.00;;
12474;SDS011;6302;42.624;23.334;2023-02-28T13:47:55;15.43;;;8.20;;
12474;SDS011;6302;42.624;23.334;2023-02-28T13:50:27;16.87;;;9.37;;
12474;SDS011;6302;42.624;23.334;2023-02-28T13:53:21;18.60;;;9.03;;
12474;SDS011;6302;42.624;23.334;2023-02-28T13:56:21;18.40;;;9.87;;
12474;SDS011;6302;42.624;23.334;2023-02-28T13:58:58;17.43;;;9.43;;
12474;SDS011;6302;42.624;23.334;2023-02-28T14:01:36;14.10;;;8.60;;
12474;SDS011;6302;42.624;23.334;2023-02-28T14:04:17;17.93;;;8.90;;
12474;SDS011;6302;42.624;23.334;2023-02-28T14:07:02;16.13;;;8.80;;
12474;SDS011;6302;42.624;23.334;2023-02-28T14:09:30;14.93;;;8.17;;
12474;SDS011;6302;42.624;23.334;2023-02-28T14:15:00;14.07;;;8.97;;
12474;SDS011;6302;42.624;23.334;2023-02-28T14:17:26;12.67;;;8.17;;
12474;SDS011;6302;42.624;23.334;2023-02-28T14:19:55;18.43;;;11.43;;
12474;SDS011;6302;42.624;23.334;2023-02-28T14:22:46;15.80;;;9.07;;
12474;SDS011;6302;42.624;23.334;2023-02-28T14:25:23;16.33;;;8.77;;
12474;SDS011;6302;42.624;23.334;2023-02-28T14:28:03;14.43;;;7.03;;
12474;SDS011;6302;42.624;23.334;2023-02-28T14:30:52;11.13;;;7.23;;
12474;SDS011;6302;42.624;23.334;2023-02-28T14:33:35;11.13;;;6.93;;
12474;SDS011;6302;42.624;23.334;2023-02-28T14:36:13;15.13;;;8.20;;
12474;SDS011;6302;42.624;23.334;2023-02-28T14:38:46;11.87;;;7.00;;
12474;SDS011;6302;42.624;23.334;2023-02-28T14:41:21;12.83;;;7.67;;
12474;SDS011;6302;42.624;23.334;2023-02-28T14:43:53;16.47;;;8.00;;
12474;SDS011;6302;42.624;23.334;2023-02-28T14:46:22;13.37;;;7.60;;
12474;SDS011;6302;42.624;23.334;2023-02-28T14:48:52;9.73;;;6.30;;
12474;SDS011;6302;42.624;23.334;2023-02-28T14:51:21;13.60;;;7.43;;
12474;SDS011;6302;42.624;23.334;2023-02-28T14:53:51;11.57;;;6.63;;
12474;SDS011;6302;42.624;23.334;2023-02-28T14:56:24;14.80;;;6.93;;
12474;SDS011;6302;42.624;23.334;2023-02-28T14:58:55;13.17;;;7.90;;
12474;SDS011;6302;42.624;23.334;2023-02-28T15:01:23;19.37;;;10.87;;
12474;SDS011;6302;42.624;23.334;2023-02-28T15:03:57;16.97;;;7.10;;
12474;SDS011;6302;42.624;23.334;2023-02-28T15:06:27;14.80;;;7.30;;
12474;SDS011;6302;42.624;23.334;2023-02-28T15:09:07;11.80;;;7.40;;
12474;SDS011;6302;42.624;23.334;2023-02-28T15:11:40;13.87;;;7.33;;
12474;SDS011;6302;42.624;23.334;2023-02-28T15:14:12;18.07;;;6.37;;
12474;SDS011;6302;42.624;23.334;2023-02-28T15:16:43;11.20;;;6.87;;